Terminal Aerodrome Forecast
Issued by NWS

Home | Current Version | Previous Version | Text Only | Print | Product List | Glossary On
Versions: 1 2 3 4 5 6 7 8 9 10 11 12 13 14 15 16 17 18 19 20
000
FTUS42 KMLB 261500 AAB
TAFSFB
TAF AMD
KSFB 261523Z 2615/2712 30015KT P6SM SKC
     FM261600 28020G28KT P6SM FEW030 SCT050 SCT120
     FM270000 28016G23KT P6SM SKC=

USA.gov is the U.S. government's official web portal to all federal, state and local government web resources and services.